Wan Hai 510 — 9VJJ8 — position and weather

sailwx.info

Track history (hours):
 
Tides and Currents Weather Stations Pressure Air Temp Water Temp Dewpoint Dewpoint Depression Visibility Wind Speed Wind Dir Waves Ship Positions

Wan Hai 510

Last reported at 2017-Jul-18 16:05 UTC. Time now 2017-Jul-23 06:38 UTC.
Position N 22°20' E 114°07'.

Length 269 m; draft 10.9 m.

Type: Ship. MMSI: 565706755.

Date/timePositionNaut miles runAvg speedWind from/ knotsBaromVisibWave heightAir tempDewpointWater temp
2017-Jul-18 16:05N 22°20' E 114°07'1 3.6
2017-Jul-18 15:56N 22°20' E 114°07'32112.5
2017-Jul-17 14:18N 22°32' E 119°54'514.7
2017-Jul-17 13:58N 22°32' E 119°60'714.5
2017-Jul-17 13:30N 22°32' E 120°07'612.6
2017-Jul-17 13:00N 22°32' E 120°14'4 7.4
2017-Jul-17 12:30N 22°33' E 120°18'2 1.4
2017-Jul-17 11:02N 22°33' E 120°20'0 0.0
2017-Jul-17 10:56N 22°33' E 120°20'0 0.0
2017-Jul-17 10:05N 22°33' E 120°20'0 0.0
2017-Jul-17 09:56N 22°33' E 120°20'0 0.0
2017-Jul-17 09:17N 22°33' E 120°20'0 0.0
2017-Jul-17 08:59N 22°33' E 120°20'0 0.0
2017-Jul-17 05:20N 22°33' E 120°20'0 0.0
2017-Jul-17 04:59N 22°33' E 120°20'0 0.0
2017-Jul-17 04:20N 22°33' E 120°20'0 0.0
2017-Jul-17 03:56N 22°33' E 120°20'0 0.0
2017-Jul-17 03:29N 22°33' E 120°20'0 0.0
2017-Jul-17 02:59N 22°33' E 120°20'0 0.0
2017-Jul-16 17:35N 22°33' E 120°20'0 0.0
2017-Jul-16 17:26N 22°33' E 120°20'0 0.0
2017-Jul-16 16:53N 22°33' E 120°20'0 0.0
2017-Jul-16 16:26N 22°33' E 120°20'0 0.0
2017-Jul-16 15:47N 22°33' E 120°20'0 0.0
2017-Jul-16 15:26N 22°33' E 120°20'0 0.0
2017-Jul-16 14:59N 22°33' E 120°20'0 0.0
2017-Jul-16 14:29N 22°33' E 120°20'0 0.0
2017-Jul-16 13:59N 22°33' E 120°20'0 0.0
2017-Jul-16 13:26N 22°33' E 120°20'0 0.0
2017-Jul-16 12:59N 22°33' E 120°20'0 0.0
2017-Jul-16 12:29N 22°33' E 120°20'0 0.0
2017-Jul-16 11:59N 22°33' E 120°20'0 0.0
2017-Jul-16 11:29N 22°33' E 120°20'0 0.0
2017-Jul-16 11:00N 22°33' E 120°20'2 2.4
2017-Jul-16 10:19N 22°33' E 120°18'3 9.1
2017-Jul-16 10:00N 22°32' E 120°15'4 8.6
2017-Jul-16 09:30N 22°31' E 120°10'2 4.0
2017-Jul-16 09:00N 22°30' E 120°09'1 2.5
2017-Jul-16 08:30N 22°29' E 120°09'1 2.1
2017-Jul-16 08:00N 22°28' E 120°10'1 1.8
2017-Jul-16 07:30N 22°27' E 120°10'3 5.3
2017-Jul-16 07:00N 22°24' E 120°09'4 7.8
2017-Jul-16 06:30N 22°21' E 120°08'510.1
2017-Jul-16 06:01N 22°16' E 120°06'714.6
2017-Jul-16 05:30N 22°09' E 120°03'914.5
2017-Jul-16 04:52N 22°01' E 119°58'  
2017-Jul-12 02:57N 01°15' E 104°05'817.8
2017-Jul-12 02:30N 01°14' E 103°58'510.6
2017-Jul-12 02:00N 01°13' E 103°52'3 6.6
2017-Jul-12 01:30N 01°16' E 103°50'0 0.3
2017-Jul-12 00:59N 01°16' E 103°50'0 0.0
2017-Jul-12 00:29N 01°16' E 103°50'0 0.0
2017-Jul-11 23:59N 01°16' E 103°50'0 0.0
2017-Jul-11 23:26N 01°16' E 103°50'0 0.0
2017-Jul-11 22:59N 01°16' E 103°50'0 0.0
2017-Jul-11 22:29N 01°16' E 103°50'0 0.0
2017-Jul-11 21:59N 01°16' E 103°50'0 0.0
2017-Jul-11 21:29N 01°16' E 103°50'0 0.0
2017-Jul-11 20:59N 01°16' E 103°50'0 0.0
2017-Jul-11 20:29N 01°16' E 103°50'0 0.0
2017-Jul-11 19:59N 01°16' E 103°50'0 0.0
2017-Jul-11 19:29N 01°16' E 103°50'0 0.0
2017-Jul-11 18:59N 01°16' E 103°50'0 0.0
2017-Jul-11 18:29N 01°16' E 103°50'0 0.0
2017-Jul-11 17:59N 01°16' E 103°50'0 0.0
2017-Jul-11 17:29N 01°16' E 103°50'0 0.0
2017-Jul-11 16:59N 01°16' E 103°50'0 0.0
2017-Jul-11 16:29N 01°16' E 103°50'0 0.0
2017-Jul-11 15:59N 01°16' E 103°50'1 1.6
2017-Jul-11 15:30N 01°15' E 103°51'3 6.0
2017-Jul-11 15:00N 01°13' E 103°53'2 4.0
2017-Jul-11 14:30N 01°12' E 103°51'4 7.0
2017-Jul-11 14:00N 01°10' E 103°48'4 9.0
2017-Jul-11 13:30N 01°07' E 103°45'5 9.4
2017-Jul-11 13:00N 01°04' E 103°41'5 9.3
2017-Jul-11 12:29N 01°04' E 103°37'611.1
2017-Jul-11 11:57N 01°07' E 103°32'511.3
2017-Jul-11 11:30N 01°09' E 103°27'611.7
2017-Jul-11 10:59N 01°13' E 103°22'  
Track history (hours):
 
Tides and Currents Weather Stations Pressure Air Temp Water Temp Dewpoint Dewpoint Depression Visibility Wind Speed Wind Dir Waves Ship Positions

Wan Hai 510

Last reported at 2017-Jul-18 16:05 UTC. Time now 2017-Jul-23 06:38 UTC.
Position N 22°20' E 114°07'.

Length 269 m; draft 10.9 m.

Type: Ship. MMSI: 565706755.

Date/timePositionNaut miles runAvg speedWind from/ knotsBaromVisibWave heightAir tempDewpointWater temp
2017-Jul-18 16:05N 22°20' E 114°07'1 3.6
2017-Jul-18 15:56N 22°20' E 114°07'32112.5
2017-Jul-17 14:18N 22°32' E 119°54'514.7
2017-Jul-17 13:58N 22°32' E 119°60'714.5
2017-Jul-17 13:30N 22°32' E 120°07'612.6
2017-Jul-17 13:00N 22°32' E 120°14'4 7.4
2017-Jul-17 12:30N 22°33' E 120°18'2 1.4
2017-Jul-17 11:02N 22°33' E 120°20'0 0.0
2017-Jul-17 10:56N 22°33' E 120°20'0 0.0
2017-Jul-17 10:05N 22°33' E 120°20'0 0.0
2017-Jul-17 09:56N 22°33' E 120°20'0 0.0
2017-Jul-17 09:17N 22°33' E 120°20'0 0.0
2017-Jul-17 08:59N 22°33' E 120°20'0 0.0
2017-Jul-17 05:20N 22°33' E 120°20'0 0.0
2017-Jul-17 04:59N 22°33' E 120°20'0 0.0
2017-Jul-17 04:20N 22°33' E 120°20'0 0.0
2017-Jul-17 03:56N 22°33' E 120°20'0 0.0
2017-Jul-17 03:29N 22°33' E 120°20'0 0.0
2017-Jul-17 02:59N 22°33' E 120°20'0 0.0
2017-Jul-16 17:35N 22°33' E 120°20'0 0.0
2017-Jul-16 17:26N 22°33' E 120°20'0 0.0
2017-Jul-16 16:53N 22°33' E 120°20'0 0.0
2017-Jul-16 16:26N 22°33' E 120°20'0 0.0
2017-Jul-16 15:47N 22°33' E 120°20'0 0.0
2017-Jul-16 15:26N 22°33' E 120°20'0 0.0
2017-Jul-16 14:59N 22°33' E 120°20'0 0.0
2017-Jul-16 14:29N 22°33' E 120°20'0 0.0
2017-Jul-16 13:59N 22°33' E 120°20'0 0.0
2017-Jul-16 13:26N 22°33' E 120°20'0 0.0
2017-Jul-16 12:59N 22°33' E 120°20'0 0.0
2017-Jul-16 12:29N 22°33' E 120°20'0 0.0
2017-Jul-16 11:59N 22°33' E 120°20'0 0.0
2017-Jul-16 11:29N 22°33' E 120°20'0 0.0
2017-Jul-16 11:00N 22°33' E 120°20'2 2.4
2017-Jul-16 10:19N 22°33' E 120°18'3 9.1
2017-Jul-16 10:00N 22°32' E 120°15'4 8.6
2017-Jul-16 09:30N 22°31' E 120°10'2 4.0
2017-Jul-16 09:00N 22°30' E 120°09'1 2.5
2017-Jul-16 08:30N 22°29' E 120°09'1 2.1
2017-Jul-16 08:00N 22°28' E 120°10'1 1.8
2017-Jul-16 07:30N 22°27' E 120°10'3 5.3
2017-Jul-16 07:00N 22°24' E 120°09'4 7.8
2017-Jul-16 06:30N 22°21' E 120°08'510.1
2017-Jul-16 06:01N 22°16' E 120°06'714.6
2017-Jul-16 05:30N 22°09' E 120°03'914.5
2017-Jul-16 04:52N 22°01' E 119°58'  
2017-Jul-12 02:57N 01°15' E 104°05'817.8
2017-Jul-12 02:30N 01°14' E 103°58'510.6
2017-Jul-12 02:00N 01°13' E 103°52'3 6.6
2017-Jul-12 01:30N 01°16' E 103°50'0 0.3
2017-Jul-12 00:59N 01°16' E 103°50'0 0.0
2017-Jul-12 00:29N 01°16' E 103°50'0 0.0
2017-Jul-11 23:59N 01°16' E 103°50'0 0.0
2017-Jul-11 23:26N 01°16' E 103°50'0 0.0
2017-Jul-11 22:59N 01°16' E 103°50'0 0.0
2017-Jul-11 22:29N 01°16' E 103°50'0 0.0
2017-Jul-11 21:59N 01°16' E 103°50'0 0.0
2017-Jul-11 21:29N 01°16' E 103°50'0 0.0
2017-Jul-11 20:59N 01°16' E 103°50'0 0.0
2017-Jul-11 20:29N 01°16' E 103°50'0 0.0
2017-Jul-11 19:59N 01°16' E 103°50'0 0.0
2017-Jul-11 19:29N 01°16' E 103°50'0 0.0
2017-Jul-11 18:59N 01°16' E 103°50'0 0.0
2017-Jul-11 18:29N 01°16' E 103°50'0 0.0
2017-Jul-11 17:59N 01°16' E 103°50'0 0.0
2017-Jul-11 17:29N 01°16' E 103°50'0 0.0
2017-Jul-11 16:59N 01°16' E 103°50'0 0.0
2017-Jul-11 16:29N 01°16' E 103°50'0 0.0
2017-Jul-11 15:59N 01°16' E 103°50'1 1.6
2017-Jul-11 15:30N 01°15' E 103°51'3 6.0
2017-Jul-11 15:00N 01°13' E 103°53'2 4.0
2017-Jul-11 14:30N 01°12' E 103°51'4 7.0
2017-Jul-11 14:00N 01°10' E 103°48'4 9.0
2017-Jul-11 13:30N 01°07' E 103°45'5 9.4
2017-Jul-11 13:00N 01°04' E 103°41'5 9.3
2017-Jul-11 12:29N 01°04' E 103°37'611.1
2017-Jul-11 11:57N 01°07' E 103°32'511.3
2017-Jul-11 11:30N 01°09' E 103°27'611.7
2017-Jul-11 10:59N 01°13' E 103°22'  

Dump ship's entire track history